sensor_id;sensor_type;location;lat;lon;timestamp;P1;durP1;ratioP1;P2;durP2;ratioP2
70487;SDS011;57976;48.174;16.370;2022-09-30T00:01:43;7.20;;;2.90;;
70487;SDS011;57976;48.174;16.370;2022-09-30T00:03:49;6.80;;;2.90;;
70487;SDS011;57976;48.174;16.370;2022-09-30T00:05:57;8.00;;;3.10;;
70487;SDS011;57976;48.174;16.370;2022-09-30T00:08:10;6.20;;;2.60;;
70487;SDS011;57976;48.174;16.370;2022-09-30T00:10:15;5.60;;;2.50;;
70487;SDS011;57976;48.174;16.370;2022-09-30T00:12:20;6.90;;;2.90;;
70487;SDS011;57976;48.174;16.370;2022-09-30T00:14:25;5.70;;;2.60;;
70487;SDS011;57976;48.174;16.370;2022-09-30T00:16:31;6.00;;;2.70;;
70487;SDS011;57976;48.174;16.370;2022-09-30T00:18:37;5.90;;;2.60;;
70487;SDS011;57976;48.174;16.370;2022-09-30T00:20:43;5.90;;;2.80;;
70487;SDS011;57976;48.174;16.370;2022-09-30T00:22:47;6.30;;;2.90;;
70487;SDS011;57976;48.174;16.370;2022-09-30T00:24:52;6.70;;;2.70;;
70487;SDS011;57976;48.174;16.370;2022-09-30T00:26:57;6.20;;;2.90;;
70487;SDS011;57976;48.174;16.370;2022-09-30T00:29:02;6.10;;;2.90;;
70487;SDS011;57976;48.174;16.370;2022-09-30T00:31:08;6.10;;;3.00;;
70487;SDS011;57976;48.174;16.370;2022-09-30T00:33:16;6.00;;;2.70;;
70487;SDS011;57976;48.174;16.370;2022-09-30T00:35:21;6.70;;;2.60;;
70487;SDS011;57976;48.174;16.370;2022-09-30T00:37:25;5.60;;;2.60;;
70487;SDS011;57976;48.174;16.370;2022-09-30T00:39:30;6.20;;;2.50;;
70487;SDS011;57976;48.174;16.370;2022-09-30T00:41:35;6.50;;;3.00;;
70487;SDS011;57976;48.174;16.370;2022-09-30T00:43:41;6.80;;;2.60;;
70487;SDS011;57976;48.174;16.370;2022-09-30T00:45:49;6.90;;;2.80;;
70487;SDS011;57976;48.174;16.370;2022-09-30T00:47:59;6.00;;;2.70;;
70487;SDS011;57976;48.174;16.370;2022-09-30T00:52:34;6.30;;;2.70;;
70487;SDS011;57976;48.174;16.370;2022-09-30T00:54:39;6.60;;;3.10;;
70487;SDS011;57976;48.174;16.370;2022-09-30T00:56:45;7.10;;;3.00;;
70487;SDS011;57976;48.174;16.370;2022-09-30T00:58:54;6.60;;;3.00;;
70487;SDS011;57976;48.174;16.370;2022-09-30T01:01:03;6.60;;;2.80;;
70487;SDS011;57976;48.174;16.370;2022-09-30T01:03:08;6.70;;;3.00;;
70487;SDS011;57976;48.174;16.370;2022-09-30T01:05:13;6.60;;;3.20;;
70487;SDS011;57976;48.174;16.370;2022-09-30T01:07:19;6.70;;;3.00;;
70487;SDS011;57976;48.174;16.370;2022-09-30T01:09:25;6.90;;;3.10;;
70487;SDS011;57976;48.174;16.370;2022-09-30T01:11:30;6.70;;;3.30;;
70487;SDS011;57976;48.174;16.370;2022-09-30T01:13:38;6.80;;;3.20;;
70487;SDS011;57976;48.174;16.370;2022-09-30T01:16:03;7.00;;;3.40;;
70487;SDS011;57976;48.174;16.370;2022-09-30T01:18:19;8.20;;;3.60;;
70487;SDS011;57976;48.174;16.370;2022-09-30T01:20:45;7.40;;;3.50;;
70487;SDS011;57976;48.174;16.370;2022-09-30T01:23:15;9.00;;;3.60;;
70487;SDS011;57976;48.174;16.370;2022-09-30T01:25:52;7.30;;;3.80;;
70487;SDS011;57976;48.174;16.370;2022-09-30T01:28:22;7.10;;;4.00;;
70487;SDS011;57976;48.174;16.370;2022-09-30T01:30:52;8.20;;;3.90;;
70487;SDS011;57976;48.174;16.370;2022-09-30T01:33:13;7.70;;;3.70;;
70487;SDS011;57976;48.174;16.370;2022-09-30T01:35:29;7.10;;;3.60;;
70487;SDS011;57976;48.174;16.370;2022-09-30T01:37:49;7.60;;;3.80;;
70487;SDS011;57976;48.174;16.370;2022-09-30T01:40:04;9.70;;;3.90;;
70487;SDS011;57976;48.174;16.370;2022-09-30T01:42:20;8.00;;;4.20;;
70487;SDS011;57976;48.174;16.370;2022-09-30T01:44:32;9.50;;;4.40;;
70487;SDS011;57976;48.174;16.370;2022-09-30T01:46:44;8.00;;;4.10;;
70487;SDS011;57976;48.174;16.370;2022-09-30T01:48:55;8.30;;;4.30;;
70487;SDS011;57976;48.174;16.370;2022-09-30T01:51:08;9.30;;;4.30;;
70487;SDS011;57976;48.174;16.370;2022-09-30T01:53:20;8.30;;;4.10;;
70487;SDS011;57976;48.174;16.370;2022-09-30T01:55:30;8.20;;;4.40;;
70487;SDS011;57976;48.174;16.370;2022-09-30T01:57:41;8.90;;;4.50;;
70487;SDS011;57976;48.174;16.370;2022-09-30T01:59:55;9.60;;;4.90;;
70487;SDS011;57976;48.174;16.370;2022-09-30T02:02:12;10.60;;;5.00;;
70487;SDS011;57976;48.174;16.370;2022-09-30T02:04:22;9.00;;;4.70;;
70487;SDS011;57976;48.174;16.370;2022-09-30T02:06:32;8.70;;;4.80;;
70487;SDS011;57976;48.174;16.370;2022-09-30T02:08:43;9.30;;;4.60;;
70487;SDS011;57976;48.174;16.370;2022-09-30T02:10:50;9.30;;;4.90;;
70487;SDS011;57976;48.174;16.370;2022-09-30T02:13:01;10.50;;;4.90;;
70487;SDS011;57976;48.174;16.370;2022-09-30T02:15:12;8.90;;;5.00;;
70487;SDS011;57976;48.174;16.370;2022-09-30T02:17:23;8.10;;;4.20;;
70487;SDS011;57976;48.174;16.370;2022-09-30T02:19:32;9.60;;;5.40;;
70487;SDS011;57976;48.174;16.370;2022-09-30T02:21:44;10.60;;;4.90;;
70487;SDS011;57976;48.174;16.370;2022-09-30T02:23:57;9.30;;;4.80;;
70487;SDS011;57976;48.174;16.370;2022-09-30T02:26:06;12.40;;;5.80;;
70487;SDS011;57976;48.174;16.370;2022-09-30T02:28:15;10.00;;;5.20;;
70487;SDS011;57976;48.174;16.370;2022-09-30T02:30:24;9.30;;;5.10;;
70487;SDS011;57976;48.174;16.370;2022-09-30T02:32:30;9.30;;;5.20;;
70487;SDS011;57976;48.174;16.370;2022-09-30T02:34:37;9.10;;;5.10;;
70487;SDS011;57976;48.174;16.370;2022-09-30T02:36:47;9.30;;;4.90;;
70487;SDS011;57976;48.174;16.370;2022-09-30T02:38:59;10.00;;;4.70;;
70487;SDS011;57976;48.174;16.370;2022-09-30T02:41:09;9.30;;;5.10;;
70487;SDS011;57976;48.174;16.370;2022-09-30T02:43:17;10.20;;;4.90;;
70487;SDS011;57976;48.174;16.370;2022-09-30T02:45:22;10.00;;;5.30;;
70487;SDS011;57976;48.174;16.370;2022-09-30T02:47:29;8.30;;;4.60;;
70487;SDS011;57976;48.174;16.370;2022-09-30T02:49:42;9.50;;;5.10;;
70487;SDS011;57976;48.174;16.370;2022-09-30T02:51:55;9.40;;;5.10;;
70487;SDS011;57976;48.174;16.370;2022-09-30T02:54:13;10.40;;;5.30;;
70487;SDS011;57976;48.174;16.370;2022-09-30T02:56:28;9.70;;;5.10;;
70487;SDS011;57976;48.174;16.370;2022-09-30T02:58:42;9.90;;;5.10;;
70487;SDS011;57976;48.174;16.370;2022-09-30T03:00:48;9.80;;;5.40;;
70487;SDS011;57976;48.174;16.370;2022-09-30T03:02:55;10.90;;;5.20;;
70487;SDS011;57976;48.174;16.370;2022-09-30T03:05:07;10.80;;;5.20;;
70487;SDS011;57976;48.174;16.370;2022-09-30T03:07:12;9.60;;;5.30;;
70487;SDS011;57976;48.174;16.370;2022-09-30T03:09:17;11.30;;;5.70;;
70487;SDS011;57976;48.174;16.370;2022-09-30T03:11:26;11.30;;;5.60;;
70487;SDS011;57976;48.174;16.370;2022-09-30T03:13:43;9.20;;;5.40;;
70487;SDS011;57976;48.174;16.370;2022-09-30T03:16:20;9.50;;;5.40;;
70487;SDS011;57976;48.174;16.370;2022-09-30T03:21:10;10.00;;;5.60;;
70487;SDS011;57976;48.174;16.370;2022-09-30T03:23:36;10.40;;;5.40;;
70487;SDS011;57976;48.174;16.370;2022-09-30T03:25:55;10.10;;;5.40;;
70487;SDS011;57976;48.174;16.370;2022-09-30T03:28:10;11.30;;;6.20;;
70487;SDS011;57976;48.174;16.370;2022-09-30T03:30:22;10.60;;;5.80;;
70487;SDS011;57976;48.174;16.370;2022-09-30T03:32:32;10.40;;;5.30;;
70487;SDS011;57976;48.174;16.370;2022-09-30T03:34:56;12.40;;;5.60;;
70487;SDS011;57976;48.174;16.370;2022-09-30T03:37:06;11.90;;;5.90;;
70487;SDS011;57976;48.174;16.370;2022-09-30T03:39:23;11.60;;;5.70;;
70487;SDS011;57976;48.174;16.370;2022-09-30T03:41:33;12.00;;;5.90;;
70487;SDS011;57976;48.174;16.370;2022-09-30T03:43:41;11.50;;;6.20;;
70487;SDS011;57976;48.174;16.370;2022-09-30T03:45:51;10.70;;;6.00;;
70487;SDS011;57976;48.174;16.370;2022-09-30T03:48:04;11.20;;;5.90;;
70487;SDS011;57976;48.174;16.370;2022-09-30T03:50:12;10.50;;;5.90;;
70487;SDS011;57976;48.174;16.370;2022-09-30T03:52:22;11.70;;;6.20;;
70487;SDS011;57976;48.174;16.370;2022-09-30T03:54:29;12.10;;;6.60;;
70487;SDS011;57976;48.174;16.370;2022-09-30T03:56:34;11.50;;;6.40;;
70487;SDS011;57976;48.174;16.370;2022-09-30T03:58:40;11.80;;;6.60;;
70487;SDS011;57976;48.174;16.370;2022-09-30T04:00:46;12.10;;;6.90;;
70487;SDS011;57976;48.174;16.370;2022-09-30T04:02:53;12.00;;;6.70;;
70487;SDS011;57976;48.174;16.370;2022-09-30T04:04:59;10.40;;;6.20;;
70487;SDS011;57976;48.174;16.370;2022-09-30T04:07:04;13.70;;;7.20;;
70487;SDS011;57976;48.174;16.370;2022-09-30T04:09:09;12.40;;;7.10;;
70487;SDS011;57976;48.174;16.370;2022-09-30T04:11:14;12.10;;;7.00;;
70487;SDS011;57976;48.174;16.370;2022-09-30T04:13:19;12.90;;;7.30;;
70487;SDS011;57976;48.174;16.370;2022-09-30T04:15:23;13.70;;;7.30;;
70487;SDS011;57976;48.174;16.370;2022-09-30T04:17:28;13.20;;;7.20;;
70487;SDS011;57976;48.174;16.370;2022-09-30T04:19:33;14.50;;;7.20;;
70487;SDS011;57976;48.174;16.370;2022-09-30T04:21:37;13.30;;;7.40;;
70487;SDS011;57976;48.174;16.370;2022-09-30T04:23:42;11.80;;;7.00;;
70487;SDS011;57976;48.174;16.370;2022-09-30T04:25:51;11.30;;;6.60;;
70487;SDS011;57976;48.174;16.370;2022-09-30T04:27:57;13.30;;;7.00;;
70487;SDS011;57976;48.174;16.370;2022-09-30T04:30:01;11.10;;;6.10;;
70487;SDS011;57976;48.174;16.370;2022-09-30T04:32:06;11.60;;;6.30;;
70487;SDS011;57976;48.174;16.370;2022-09-30T04:34:11;11.80;;;6.60;;
70487;SDS011;57976;48.174;16.370;2022-09-30T04:36:16;10.90;;;6.80;;
70487;SDS011;57976;48.174;16.370;2022-09-30T04:38:21;11.90;;;6.60;;
70487;SDS011;57976;48.174;16.370;2022-09-30T04:40:26;13.00;;;6.80;;
70487;SDS011;57976;48.174;16.370;2022-09-30T04:42:31;11.50;;;6.60;;
70487;SDS011;57976;48.174;16.370;2022-09-30T04:44:35;11.80;;;6.70;;
70487;SDS011;57976;48.174;16.370;2022-09-30T04:46:40;11.60;;;6.60;;
70487;SDS011;57976;48.174;16.370;2022-09-30T04:48:45;12.10;;;6.60;;
70487;SDS011;57976;48.174;16.370;2022-09-30T04:50:50;12.80;;;7.20;;
70487;SDS011;57976;48.174;16.370;2022-09-30T04:52:55;12.00;;;6.80;;
70487;SDS011;57976;48.174;16.370;2022-09-30T04:55:00;12.80;;;7.30;;
70487;SDS011;57976;48.174;16.370;2022-09-30T04:57:05;13.70;;;7.40;;
70487;SDS011;57976;48.174;16.370;2022-09-30T04:59:09;13.30;;;6.80;;
70487;SDS011;57976;48.174;16.370;2022-09-30T05:01:15;12.60;;;6.90;;
70487;SDS011;57976;48.174;16.370;2022-09-30T05:03:21;13.00;;;6.90;;
70487;SDS011;57976;48.174;16.370;2022-09-30T05:05:25;13.40;;;7.00;;
70487;SDS011;57976;48.174;16.370;2022-09-30T05:07:31;11.80;;;6.70;;
70487;SDS011;57976;48.174;16.370;2022-09-30T05:09:35;12.20;;;6.60;;
70487;SDS011;57976;48.174;16.370;2022-09-30T05:11:41;11.80;;;6.50;;
70487;SDS011;57976;48.174;16.370;2022-09-30T05:13:45;12.80;;;6.80;;
70487;SDS011;57976;48.174;16.370;2022-09-30T05:15:50;12.10;;;6.70;;
70487;SDS011;57976;48.174;16.370;2022-09-30T05:17:55;12.30;;;6.70;;
70487;SDS011;57976;48.174;16.370;2022-09-30T05:20:00;12.60;;;7.20;;
70487;SDS011;57976;48.174;16.370;2022-09-30T05:22:06;12.70;;;6.90;;
70487;SDS011;57976;48.174;16.370;2022-09-30T05:24:10;11.10;;;5.70;;
70487;SDS011;57976;48.174;16.370;2022-09-30T05:26:16;12.40;;;5.60;;
70487;SDS011;57976;48.174;16.370;2022-09-30T05:28:20;9.80;;;5.10;;
70487;SDS011;57976;48.174;16.370;2022-09-30T05:30:25;11.60;;;5.90;;
70487;SDS011;57976;48.174;16.370;2022-09-30T05:32:30;11.00;;;5.70;;
70487;SDS011;57976;48.174;16.370;2022-09-30T05:34:35;10.10;;;5.70;;
70487;SDS011;57976;48.174;16.370;2022-09-30T05:36:39;11.70;;;6.20;;
70487;SDS011;57976;48.174;16.370;2022-09-30T05:38:44;12.30;;;5.60;;
70487;SDS011;57976;48.174;16.370;2022-09-30T05:40:52;11.50;;;6.00;;
70487;SDS011;57976;48.174;16.370;2022-09-30T05:42:56;11.20;;;5.90;;
70487;SDS011;57976;48.174;16.370;2022-09-30T05:45:02;11.80;;;5.90;;
70487;SDS011;57976;48.174;16.370;2022-09-30T05:47:07;13.80;;;5.60;;
70487;SDS011;57976;48.174;16.370;2022-09-30T05:49:12;10.50;;;5.70;;
70487;SDS011;57976;48.174;16.370;2022-09-30T05:51:17;10.10;;;5.60;;
70487;SDS011;57976;48.174;16.370;2022-09-30T05:53:21;9.30;;;5.00;;
70487;SDS011;57976;48.174;16.370;2022-09-30T05:55:26;10.10;;;5.60;;
70487;SDS011;57976;48.174;16.370;2022-09-30T05:57:31;9.70;;;5.50;;
70487;SDS011;57976;48.174;16.370;2022-09-30T05:59:36;10.80;;;5.50;;
70487;SDS011;57976;48.174;16.370;2022-09-30T06:01:41;9.90;;;5.40;;
70487;SDS011;57976;48.174;16.370;2022-09-30T06:03:46;10.80;;;5.50;;
70487;SDS011;57976;48.174;16.370;2022-09-30T06:05:55;9.10;;;5.20;;
70487;SDS011;57976;48.174;16.370;2022-09-30T06:08:00;9.20;;;5.00;;
70487;SDS011;57976;48.174;16.370;2022-09-30T06:10:07;9.30;;;5.20;;
70487;SDS011;57976;48.174;16.370;2022-09-30T06:12:12;9.00;;;4.80;;
70487;SDS011;57976;48.174;16.370;2022-09-30T06:14:17;10.00;;;5.20;;
70487;SDS011;57976;48.174;16.370;2022-09-30T06:16:22;9.50;;;4.60;;
70487;SDS011;57976;48.174;16.370;2022-09-30T06:18:27;11.20;;;4.80;;
70487;SDS011;57976;48.174;16.370;2022-09-30T06:20:32;9.60;;;5.20;;
70487;SDS011;57976;48.174;16.370;2022-09-30T06:22:38;9.20;;;4.30;;
70487;SDS011;57976;48.174;16.370;2022-09-30T06:24:42;9.60;;;4.70;;
70487;SDS011;57976;48.174;16.370;2022-09-30T06:26:47;12.90;;;4.40;;
70487;SDS011;57976;48.174;16.370;2022-09-30T06:28:52;9.40;;;4.60;;
70487;SDS011;57976;48.174;16.370;2022-09-30T06:30:57;9.50;;;4.10;;
70487;SDS011;57976;48.174;16.370;2022-09-30T06:33:02;10.40;;;4.20;;
70487;SDS011;57976;48.174;16.370;2022-09-30T06:35:07;9.30;;;4.00;;
70487;SDS011;57976;48.174;16.370;2022-09-30T06:37:12;9.50;;;3.80;;
70487;SDS011;57976;48.174;16.370;2022-09-30T06:39:17;8.70;;;4.00;;
70487;SDS011;57976;48.174;16.370;2022-09-30T06:41:22;9.30;;;4.00;;
70487;SDS011;57976;48.174;16.370;2022-09-30T06:43:26;6.80;;;3.50;;
70487;SDS011;57976;48.174;16.370;2022-09-30T06:45:31;7.60;;;3.60;;
70487;SDS011;57976;48.174;16.370;2022-09-30T06:47:37;7.90;;;4.30;;
70487;SDS011;57976;48.174;16.370;2022-09-30T06:49:49;7.30;;;3.80;;
70487;SDS011;57976;48.174;16.370;2022-09-30T06:51:54;7.50;;;4.10;;
70487;SDS011;57976;48.174;16.370;2022-09-30T06:53:59;7.90;;;3.90;;
70487;SDS011;57976;48.174;16.370;2022-09-30T06:56:04;9.30;;;4.30;;
70487;SDS011;57976;48.174;16.370;2022-09-30T06:58:12;7.40;;;4.00;;
70487;SDS011;57976;48.174;16.370;2022-09-30T07:00:17;8.50;;;4.00;;
70487;SDS011;57976;48.174;16.370;2022-09-30T07:02:22;9.40;;;4.70;;
70487;SDS011;57976;48.174;16.370;2022-09-30T07:04:27;8.50;;;4.00;;
70487;SDS011;57976;48.174;16.370;2022-09-30T07:06:31;8.20;;;4.30;;
70487;SDS011;57976;48.174;16.370;2022-09-30T07:08:36;8.90;;;4.30;;
70487;SDS011;57976;48.174;16.370;2022-09-30T07:10:41;9.60;;;4.30;;
70487;SDS011;57976;48.174;16.370;2022-09-30T07:12:50;8.60;;;4.70;;
70487;SDS011;57976;48.174;16.370;2022-09-30T07:14:55;9.50;;;5.20;;
70487;SDS011;57976;48.174;16.370;2022-09-30T07:17:00;9.00;;;4.50;;
70487;SDS011;57976;48.174;16.370;2022-09-30T07:19:05;9.00;;;4.80;;
70487;SDS011;57976;48.174;16.370;2022-09-30T07:21:10;9.10;;;4.90;;
70487;SDS011;57976;48.174;16.370;2022-09-30T07:23:16;8.90;;;4.80;;
70487;SDS011;57976;48.174;16.370;2022-09-30T07:25:27;9.30;;;5.20;;
70487;SDS011;57976;48.174;16.370;2022-09-30T07:27:32;9.40;;;5.20;;
70487;SDS011;57976;48.174;16.370;2022-09-30T07:29:37;8.70;;;5.30;;
70487;SDS011;57976;48.174;16.370;2022-09-30T07:32:02;9.70;;;5.60;;
70487;SDS011;57976;48.174;16.370;2022-09-30T07:34:07;10.60;;;5.30;;
70487;SDS011;57976;48.174;16.370;2022-09-30T07:36:12;10.10;;;5.70;;
70487;SDS011;57976;48.174;16.370;2022-09-30T07:38:18;9.50;;;5.50;;
70487;SDS011;57976;48.174;16.370;2022-09-30T07:40:24;10.30;;;5.90;;
70487;SDS011;57976;48.174;16.370;2022-09-30T07:42:29;10.50;;;5.80;;
70487;SDS011;57976;48.174;16.370;2022-09-30T07:44:34;10.40;;;5.80;;
70487;SDS011;57976;48.174;16.370;2022-09-30T07:46:40;9.60;;;5.50;;
70487;SDS011;57976;48.174;16.370;2022-09-30T07:48:46;8.90;;;5.40;;
70487;SDS011;57976;48.174;16.370;2022-09-30T07:50:53;10.00;;;5.70;;
70487;SDS011;57976;48.174;16.370;2022-09-30T07:52:58;9.90;;;5.40;;
70487;SDS011;57976;48.174;16.370;2022-09-30T07:55:03;10.50;;;5.20;;
70487;SDS011;57976;48.174;16.370;2022-09-30T07:57:08;11.70;;;5.40;;
70487;SDS011;57976;48.174;16.370;2022-09-30T07:59:14;9.00;;;5.40;;
70487;SDS011;57976;48.174;16.370;2022-09-30T08:01:20;9.30;;;5.50;;
70487;SDS011;57976;48.174;16.370;2022-09-30T08:03:26;10.90;;;5.50;;
70487;SDS011;57976;48.174;16.370;2022-09-30T08:05:30;9.40;;;5.50;;
70487;SDS011;57976;48.174;16.370;2022-09-30T08:07:40;10.60;;;5.40;;
70487;SDS011;57976;48.174;16.370;2022-09-30T08:09:45;10.40;;;5.90;;
70487;SDS011;57976;48.174;16.370;2022-09-30T08:11:49;10.60;;;6.00;;
70487;SDS011;57976;48.174;16.370;2022-09-30T08:13:55;11.50;;;5.90;;
70487;SDS011;57976;48.174;16.370;2022-09-30T08:16:00;10.40;;;5.70;;
70487;SDS011;57976;48.174;16.370;2022-09-30T08:18:05;10.90;;;6.20;;
70487;SDS011;57976;48.174;16.370;2022-09-30T08:20:10;11.50;;;6.50;;
70487;SDS011;57976;48.174;16.370;2022-09-30T08:22:19;11.80;;;6.20;;
70487;SDS011;57976;48.174;16.370;2022-09-30T08:24:24;11.60;;;6.40;;
70487;SDS011;57976;48.174;16.370;2022-09-30T08:26:29;12.10;;;6.90;;
70487;SDS011;57976;48.174;16.370;2022-09-30T08:28:34;10.50;;;6.50;;
70487;SDS011;57976;48.174;16.370;2022-09-30T08:30:40;11.00;;;7.10;;
70487;SDS011;57976;48.174;16.370;2022-09-30T08:32:46;12.40;;;7.20;;
70487;SDS011;57976;48.174;16.370;2022-09-30T08:34:51;13.30;;;7.50;;
70487;SDS011;57976;48.174;16.370;2022-09-30T08:36:56;12.20;;;7.40;;
70487;SDS011;57976;48.174;16.370;2022-09-30T08:39:01;12.00;;;7.30;;
70487;SDS011;57976;48.174;16.370;2022-09-30T08:41:15;13.10;;;7.80;;
70487;SDS011;57976;48.174;16.370;2022-09-30T08:43:32;12.20;;;7.60;;
70487;SDS011;57976;48.174;16.370;2022-09-30T08:45:47;11.90;;;7.20;;
70487;SDS011;57976;48.174;16.370;2022-09-30T08:48:00;12.10;;;7.30;;
70487;SDS011;57976;48.174;16.370;2022-09-30T08:50:15;11.90;;;7.60;;
70487;SDS011;57976;48.174;16.370;2022-09-30T08:52:30;13.30;;;7.60;;
70487;SDS011;57976;48.174;16.370;2022-09-30T08:54:52;15.20;;;8.10;;
70487;SDS011;57976;48.174;16.370;2022-09-30T08:56:58;13.30;;;7.30;;
70487;SDS011;57976;48.174;16.370;2022-09-30T08:59:05;14.10;;;7.10;;
70487;SDS011;57976;48.174;16.370;2022-09-30T09:01:19;11.60;;;6.70;;
70487;SDS011;57976;48.174;16.370;2022-09-30T09:03:31;11.00;;;6.80;;
70487;SDS011;57976;48.174;16.370;2022-09-30T09:05:38;11.80;;;6.70;;
70487;SDS011;57976;48.174;16.370;2022-09-30T09:07:56;13.00;;;7.00;;
70487;SDS011;57976;48.174;16.370;2022-09-30T09:10:09;13.10;;;7.10;;
70487;SDS011;57976;48.174;16.370;2022-09-30T09:12:25;12.70;;;7.10;;
70487;SDS011;57976;48.174;16.370;2022-09-30T09:14:41;13.60;;;7.40;;
70487;SDS011;57976;48.174;16.370;2022-09-30T09:16:59;11.00;;;6.70;;
70487;SDS011;57976;48.174;16.370;2022-09-30T09:19:18;13.00;;;7.20;;
70487;SDS011;57976;48.174;16.370;2022-09-30T09:21:31;11.40;;;7.10;;
70487;SDS011;57976;48.174;16.370;2022-09-30T09:23:46;11.40;;;7.00;;
70487;SDS011;57976;48.174;16.370;2022-09-30T09:25:54;12.10;;;6.90;;
70487;SDS011;57976;48.174;16.370;2022-09-30T09:28:00;11.80;;;6.60;;
70487;SDS011;57976;48.174;16.370;2022-09-30T09:30:09;11.60;;;7.00;;
70487;SDS011;57976;48.174;16.370;2022-09-30T09:32:17;12.00;;;6.80;;
70487;SDS011;57976;48.174;16.370;2022-09-30T09:34:23;12.70;;;6.50;;
70487;SDS011;57976;48.174;16.370;2022-09-30T09:36:32;10.70;;;6.40;;
70487;SDS011;57976;48.174;16.370;2022-09-30T09:38:52;11.80;;;6.10;;
70487;SDS011;57976;48.174;16.370;2022-09-30T09:41:11;11.60;;;6.20;;
70487;SDS011;57976;48.174;16.370;2022-09-30T09:43:31;9.10;;;5.60;;
70487;SDS011;57976;48.174;16.370;2022-09-30T09:45:50;9.30;;;5.60;;
70487;SDS011;57976;48.174;16.370;2022-09-30T09:48:00;9.20;;;5.20;;
70487;SDS011;57976;48.174;16.370;2022-09-30T09:50:12;9.60;;;5.40;;
70487;SDS011;57976;48.174;16.370;2022-09-30T09:55:03;9.80;;;5.70;;
70487;SDS011;57976;48.174;16.370;2022-09-30T09:57:09;9.10;;;5.20;;
70487;SDS011;57976;48.174;16.370;2022-09-30T09:59:17;10.70;;;5.40;;
70487;SDS011;57976;48.174;16.370;2022-09-30T10:01:22;9.40;;;5.00;;
70487;SDS011;57976;48.174;16.370;2022-09-30T10:03:27;8.70;;;5.10;;
70487;SDS011;57976;48.174;16.370;2022-09-30T10:05:32;8.90;;;4.90;;
70487;SDS011;57976;48.174;16.370;2022-09-30T10:07:38;8.70;;;5.20;;
70487;SDS011;57976;48.174;16.370;2022-09-30T10:09:42;8.20;;;4.90;;
70487;SDS011;57976;48.174;16.370;2022-09-30T10:11:49;8.90;;;4.80;;
70487;SDS011;57976;48.174;16.370;2022-09-30T10:13:54;8.90;;;4.90;;
70487;SDS011;57976;48.174;16.370;2022-09-30T10:16:01;9.60;;;5.30;;
70487;SDS011;57976;48.174;16.370;2022-09-30T10:18:13;9.10;;;4.90;;
70487;SDS011;57976;48.174;16.370;2022-09-30T10:20:24;8.70;;;5.30;;
70487;SDS011;57976;48.174;16.370;2022-09-30T10:22:32;9.40;;;5.50;;
70487;SDS011;57976;48.174;16.370;2022-09-30T10:24:39;9.90;;;5.20;;
70487;SDS011;57976;48.174;16.370;2022-09-30T10:26:44;9.30;;;5.70;;
70487;SDS011;57976;48.174;16.370;2022-09-30T10:28:51;9.10;;;5.90;;
70487;SDS011;57976;48.174;16.370;2022-09-30T10:30:59;9.10;;;5.60;;
70487;SDS011;57976;48.174;16.370;2022-09-30T10:33:15;11.10;;;5.70;;
70487;SDS011;57976;48.174;16.370;2022-09-30T10:35:26;10.80;;;5.60;;
70487;SDS011;57976;48.174;16.370;2022-09-30T10:37:31;10.10;;;5.80;;
70487;SDS011;57976;48.174;16.370;2022-09-30T10:39:36;9.70;;;5.90;;
70487;SDS011;57976;48.174;16.370;2022-09-30T10:41:44;10.70;;;6.20;;
70487;SDS011;57976;48.174;16.370;2022-09-30T10:43:50;11.70;;;6.20;;
70487;SDS011;57976;48.174;16.370;2022-09-30T10:45:57;10.90;;;5.80;;
70487;SDS011;57976;48.174;16.370;2022-09-30T10:48:23;9.20;;;5.60;;
70487;SDS011;57976;48.174;16.370;2022-09-30T10:50:36;10.40;;;5.40;;
70487;SDS011;57976;48.174;16.370;2022-09-30T10:52:51;9.30;;;5.30;;
70487;SDS011;57976;48.174;16.370;2022-09-30T10:55:00;10.30;;;5.20;;
70487;SDS011;57976;48.174;16.370;2022-09-30T10:57:20;9.80;;;5.40;;
70487;SDS011;57976;48.174;16.370;2022-09-30T10:59:29;10.00;;;5.70;;
70487;SDS011;57976;48.174;16.370;2022-09-30T11:01:39;9.60;;;5.80;;
70487;SDS011;57976;48.174;16.370;2022-09-30T11:03:51;10.00;;;5.80;;
70487;SDS011;57976;48.174;16.370;2022-09-30T11:06:01;9.60;;;5.90;;
70487;SDS011;57976;48.174;16.370;2022-09-30T11:08:09;9.10;;;5.50;;
70487;SDS011;57976;48.174;16.370;2022-09-30T11:10:32;10.10;;;5.60;;
70487;SDS011;57976;48.174;16.370;2022-09-30T11:12:42;10.10;;;5.60;;
70487;SDS011;57976;48.174;16.370;2022-09-30T11:14:55;10.60;;;5.70;;
70487;SDS011;57976;48.174;16.370;2022-09-30T11:17:09;9.70;;;5.40;;
70487;SDS011;57976;48.174;16.370;2022-09-30T11:19:25;9.00;;;4.90;;
70487;SDS011;57976;48.174;16.370;2022-09-30T11:21:34;8.80;;;4.90;;
70487;SDS011;57976;48.174;16.370;2022-09-30T11:23:45;9.50;;;5.30;;
70487;SDS011;57976;48.174;16.370;2022-09-30T11:25:55;8.10;;;4.60;;
70487;SDS011;57976;48.174;16.370;2022-09-30T11:28:13;9.10;;;4.40;;
70487;SDS011;57976;48.174;16.370;2022-09-30T11:30:29;8.70;;;4.80;;
70487;SDS011;57976;48.174;16.370;2022-09-30T11:32:43;8.60;;;5.10;;
70487;SDS011;57976;48.174;16.370;2022-09-30T11:35:06;8.90;;;5.10;;
70487;SDS011;57976;48.174;16.370;2022-09-30T11:37:25;9.20;;;4.80;;
70487;SDS011;57976;48.174;16.370;2022-09-30T11:39:43;9.10;;;4.90;;
70487;SDS011;57976;48.174;16.370;2022-09-30T11:42:06;8.30;;;4.60;;
70487;SDS011;57976;48.174;16.370;2022-09-30T11:44:20;8.40;;;4.50;;
70487;SDS011;57976;48.174;16.370;2022-09-30T11:46:39;8.00;;;4.40;;
70487;SDS011;57976;48.174;16.370;2022-09-30T11:49:18;8.40;;;4.60;;
70487;SDS011;57976;48.174;16.370;2022-09-30T11:51:36;9.20;;;4.30;;
70487;SDS011;57976;48.174;16.370;2022-09-30T11:53:47;7.30;;;3.70;;
70487;SDS011;57976;48.174;16.370;2022-09-30T11:56:07;7.60;;;3.70;;
70487;SDS011;57976;48.174;16.370;2022-09-30T11:58:25;7.40;;;4.00;;
70487;SDS011;57976;48.174;16.370;2022-09-30T12:00:46;7.60;;;4.00;;
70487;SDS011;57976;48.174;16.370;2022-09-30T12:02:55;7.60;;;3.60;;
70487;SDS011;57976;48.174;16.370;2022-09-30T12:05:12;7.80;;;3.60;;
70487;SDS011;57976;48.174;16.370;2022-09-30T12:07:21;7.90;;;3.20;;
70487;SDS011;57976;48.174;16.370;2022-09-30T12:09:34;6.70;;;3.40;;
70487;SDS011;57976;48.174;16.370;2022-09-30T12:11:45;7.90;;;3.90;;
70487;SDS011;57976;48.174;16.370;2022-09-30T12:13:57;7.20;;;3.20;;
70487;SDS011;57976;48.174;16.370;2022-09-30T12:16:14;7.60;;;3.20;;
70487;SDS011;57976;48.174;16.370;2022-09-30T12:18:23;6.60;;;3.20;;
70487;SDS011;57976;48.174;16.370;2022-09-30T12:20:32;7.40;;;3.20;;
70487;SDS011;57976;48.174;16.370;2022-09-30T12:22:42;6.80;;;3.40;;
70487;SDS011;57976;48.174;16.370;2022-09-30T12:24:48;6.60;;;3.10;;
70487;SDS011;57976;48.174;16.370;2022-09-30T12:26:53;6.30;;;3.00;;
70487;SDS011;57976;48.174;16.370;2022-09-30T12:28:59;7.00;;;3.20;;
70487;SDS011;57976;48.174;16.370;2022-09-30T12:31:13;6.00;;;2.60;;
70487;SDS011;57976;48.174;16.370;2022-09-30T12:33:37;6.90;;;3.00;;
70487;SDS011;57976;48.174;16.370;2022-09-30T12:36:05;7.40;;;3.60;;
70487;SDS011;57976;48.174;16.370;2022-09-30T12:38:28;6.60;;;3.00;;
70487;SDS011;57976;48.174;16.370;2022-09-30T12:40:52;6.80;;;2.40;;
70487;SDS011;57976;48.174;16.370;2022-09-30T12:43:16;5.60;;;2.40;;
70487;SDS011;57976;48.174;16.370;2022-09-30T12:46:02;6.20;;;2.50;;
70487;SDS011;57976;48.174;16.370;2022-09-30T12:48:15;5.40;;;2.20;;
70487;SDS011;57976;48.174;16.370;2022-09-30T12:50:23;5.30;;;2.50;;
70487;SDS011;57976;48.174;16.370;2022-09-30T12:52:32;5.40;;;2.60;;